Time;durP1;ratioP1;P1;durP2;ratioP2;P2;SDS_P1;SDS_P2;PMS_P1;PMS_P2;Temp;Humidity;BMP_temperature;BMP_pressure;BME280_temperature;BME280_humidity;BME280_pressure;Samples;Min_cycle;Max_cycle;Signal;HPM_P1;HPM_P2
2023/08/08 00:00:42;;;;;;;2.70;1.50;;;;;;;26.16;38.05;100277.64;104001;1286;69275;-85
2023/08/08 00:03:08;;;;;;;2.00;1.20;;;;;;;26.15;38.26;100267.80;104156;1286;69312;-85
2023/08/08 00:05:34;;;;;;;2.50;1.20;;;;;;;26.14;38.45;100245.71;104153;1285;73506;-85
2023/08/08 00:10:33;;;;;;;2.50;1.30;;;;;;;26.14;38.72;100222.98;104689;1282;69182;-85
2023/08/08 00:12:58;;;;;;;1.40;1.20;;;;;;;26.14;38.86;100215.87;104286;1282;71089;-85
2023/08/08 00:15:24;;;;;;;2.20;1.80;;;;;;;26.13;39.13;100207.48;104610;1283;69364;-85
2023/08/08 00:17:49;;;;;;;2.60;1.50;;;;;;;26.13;39.11;100207.98;104400;1287;69244;-85
2023/08/08 00:20:15;;;;;;;2.70;1.40;;;;;;;26.13;39.21;100205.01;104449;1285;69180;-85
2023/08/08 00:22:40;;;;;;;3.90;1.40;;;;;;;26.12;39.44;100209.92;104506;1286;69246;-85
2023/08/08 00:25:06;;;;;;;2.50;1.70;;;;;;;26.12;39.62;100214.00;104489;1288;69204;-85
2023/08/08 00:27:32;;;;;;;3.00;1.60;;;;;;;26.11;39.72;100216.38;104634;1282;69329;-85
2023/08/08 00:29:57;;;;;;;3.40;1.60;;;;;;;26.12;39.98;100228.85;104574;1285;69244;-85
2023/08/08 00:32:23;;;;;;;2.30;1.40;;;;;;;26.11;39.97;100231.90;104421;1285;69366;-85
2023/08/08 00:34:48;;;;;;;3.20;1.50;;;;;;;26.11;39.88;100225.52;104529;1282;69186;-85
2023/08/08 00:37:14;;;;;;;3.50;1.60;;;;;;;26.10;40.10;100225.88;104632;1283;69130;-85
2023/08/08 00:39:42;;;;;;;4.10;1.50;;;;;;;26.10;40.19;100227.85;104631;1282;69210;-85
2023/08/08 00:42:07;;;;;;;2.80;1.60;;;;;;;26.10;40.25;100228.37;104622;1282;69298;-85
2023/08/08 00:44:33;;;;;;;4.30;1.40;;;;;;;26.09;40.45;100223.38;104601;1285;69310;-84
2023/08/08 00:47:08;;;;;;;4.10;1.60;;;;;;;26.09;40.45;100218.53;104572;1288;69113;-91
2023/08/08 00:49:33;;;;;;;2.40;1.50;;;;;;;26.08;40.54;100213.20;104400;1288;74524;-86
2023/08/08 00:51:59;;;;;;;1.80;1.40;;;;;;;26.09;40.49;100216.07;104496;1288;69263;-86
2023/08/08 00:54:24;;;;;;;3.10;1.40;;;;;;;26.08;40.56;100214.64;104605;1285;69247;-86
2023/08/08 00:56:50;;;;;;;3.20;1.70;;;;;;;26.08;40.73;100212.43;104571;1283;68028;-86
2023/08/08 00:59:15;;;;;;;1.70;1.40;;;;;;;26.08;40.80;100213.98;104350;1282;67523;-86
2023/08/08 01:01:41;;;;;;;3.40;1.70;;;;;;;26.07;40.99;100220.03;104515;1282;69349;-86
2023/08/08 01:04:06;;;;;;;2.20;1.30;;;;;;;26.07;40.86;100224.64;104542;1283;69246;-86
2023/08/08 01:06:43;;;;;;;2.40;1.50;;;;;;;26.07;40.95;100229.21;104579;1287;69251;-86
2023/08/08 01:09:30;;;;;;;3.70;1.80;;;;;;;26.06;41.03;100232.27;104518;1282;69129;-86
2023/08/08 01:11:55;;;;;;;3.30;2.00;;;;;;;26.05;40.92;100235.55;104989;1284;73690;-86
2023/08/08 01:14:22;;;;;;;2.70;1.40;;;;;;;26.05;41.04;100236.02;104143;1285;69389;-86
2023/08/08 01:19:23;;;;;;;2.00;1.60;;;;;;;26.05;41.19;100238.19;104619;1282;69202;-85
2023/08/08 01:21:49;;;;;;;2.20;1.70;;;;;;;26.05;41.26;100241.59;104281;1288;69158;-85
2023/08/08 01:24:19;;;;;;;2.10;1.70;;;;;;;26.05;41.25;100252.79;104397;1288;69337;-85
2023/08/08 01:26:45;;;;;;;1.90;1.50;;;;;;;26.04;41.41;100258.56;104543;1284;69256;-85
2023/08/08 01:29:11;;;;;;;3.40;1.70;;;;;;;26.04;41.32;100264.61;104528;1282;69311;-86
2023/08/08 01:31:37;;;;;;;3.10;1.70;;;;;;;26.04;41.54;100267.64;104381;1285;69254;-85
2023/08/08 01:34:02;;;;;;;3.10;1.70;;;;;;;26.04;41.25;100271.83;104305;1284;69336;-85
2023/08/08 01:36:35;;;;;;;2.10;1.40;;;;;;;26.04;41.44;100284.05;104540;1284;69250;-85
2023/08/08 01:39:05;;;;;;;2.70;1.70;;;;;;;26.04;41.63;100285.44;104446;1287;69301;-85
2023/08/08 01:41:34;;;;;;;3.50;1.60;;;;;;;26.04;41.62;100294.92;104360;1288;69195;-85
2023/08/08 01:44:00;;;;;;;2.80;1.30;;;;;;;26.03;41.34;100293.45;104502;1286;69101;-86
2023/08/08 01:46:25;;;;;;;2.50;1.70;;;;;;;26.03;41.44;100292.42;104282;1282;69225;-85
2023/08/08 01:48:51;;;;;;;3.10;1.40;;;;;;;26.02;41.52;100299.75;104180;1285;69309;-85
2023/08/08 01:51:17;;;;;;;3.40;1.50;;;;;;;26.02;41.79;100302.29;104466;1284;69254;-85
2023/08/08 01:53:42;;;;;;;2.00;1.60;;;;;;;26.01;41.64;100308.48;104410;1283;69215;-85
2023/08/08 01:56:08;;;;;;;2.60;1.80;;;;;;;26.02;41.80;100313.01;104442;1282;73728;-86
2023/08/08 01:58:33;;;;;;;2.40;1.30;;;;;;;26.01;41.62;100314.16;104206;1288;69323;-85
2023/08/08 02:00:59;;;;;;;4.50;1.50;;;;;;;26.01;41.65;100308.81;104395;1285;69301;-85
2023/08/08 02:03:24;;;;;;;1.90;1.60;;;;;;;26.01;41.66;100311.13;104393;1283;69262;-85
2023/08/08 02:05:50;;;;;;;2.80;1.20;;;;;;;26.01;41.90;100307.52;104267;1282;69316;-85
2023/08/08 02:08:16;;;;;;;2.40;1.30;;;;;;;26.00;41.98;100310.42;104442;1285;69068;-86
2023/08/08 02:10:46;;;;;;;2.30;1.30;;;;;;;26.00;41.93;100313.38;104461;1288;69129;-91
2023/08/08 02:13:11;;;;;;;2.10;1.30;;;;;;;25.99;41.98;100311.75;104437;1286;69119;-85
2023/08/08 02:15:37;;;;;;;1.40;1.20;;;;;;;25.99;41.96;100314.73;104445;1282;69108;-85
2023/08/08 02:18:03;;;;;;;1.90;1.40;;;;;;;25.98;41.95;100307.02;104213;1282;329724;-85
2023/08/08 02:20:29;;;;;;;2.30;1.40;;;;;;;25.98;42.03;100313.08;104326;1282;69127;-85
2023/08/08 02:22:55;;;;;;;1.90;1.20;;;;;;;25.96;42.03;100319.08;104555;1285;69241;-85
2023/08/08 02:25:20;;;;;;;1.40;1.20;;;;;;;25.97;41.99;100319.21;104459;1282;69202;-85
2023/08/08 02:27:46;;;;;;;2.10;1.20;;;;;;;25.96;41.82;100322.84;104560;1282;69663;-85
2023/08/08 02:30:12;;;;;;;3.30;1.30;;;;;;;25.96;41.82;100326.77;104432;1282;70535;-85
2023/08/08 02:32:38;;;;;;;1.70;1.30;;;;;;;25.95;41.88;100324.98;104488;1282;69104;-85
2023/08/08 02:35:03;;;;;;;3.20;1.50;;;;;;;25.94;41.75;100322.98;104502;1282;69414;-85
2023/08/08 02:40:03;;;;;;;1.70;1.20;;;;;;;25.93;41.98;100332.91;104648;1283;72855;-85
2023/08/08 02:42:28;;;;;;;1.60;1.00;;;;;;;25.93;41.80;100343.06;104366;1288;69798;-85
2023/08/08 02:44:54;;;;;;;1.70;1.00;;;;;;;25.92;41.90;100346.95;104569;1283;69141;-85
2023/08/08 02:47:20;;;;;;;2.70;1.20;;;;;;;25.91;41.80;100342.07;104575;1286;69257;-86
2023/08/08 02:49:46;;;;;;;4.00;1.50;;;;;;;25.87;42.03;100345.91;104819;1282;69315;-86
2023/08/08 02:52:11;;;;;;;2.40;1.30;;;;;;;25.77;41.87;100352.33;104603;1288;69309;-85
2023/08/08 02:54:37;;;;;;;10.50;1.60;;;;;;;25.60;42.01;100361.20;104916;1282;69240;-85
2023/08/08 02:57:02;;;;;;;3.20;1.30;;;;;;;25.44;42.30;100355.03;104556;1282;69253;-85
2023/08/08 02:59:28;;;;;;;3.20;1.30;;;;;;;25.29;42.12;100343.40;104606;1282;69263;-85
2023/08/08 03:01:54;;;;;;;1.30;1.20;;;;;;;25.18;42.44;100330.14;104620;1281;69187;-85
2023/08/08 03:04:19;;;;;;;1.50;1.20;;;;;;;25.03;42.49;100323.11;104522;1282;69194;-85
2023/08/08 03:06:45;;;;;;;1.70;1.20;;;;;;;24.85;42.53;100331.69;104340;1282;69197;-85
2023/08/08 03:09:10;;;;;;;2.40;1.30;;;;;;;24.69;42.98;100336.75;104250;1282;69361;-85
2023/08/08 03:11:37;;;;;;;1.40;1.30;;;;;;;24.55;43.25;100341.05;104399;1286;69173;-85
2023/08/08 03:14:03;;;;;;;3.10;1.30;;;;;;;24.45;43.33;100352.01;104490;1283;69260;-86
2023/08/08 03:16:32;;;;;;;1.80;1.20;;;;;;;24.41;43.55;100362.54;104332;1288;70331;-91
2023/08/08 03:18:58;;;;;;;1.40;1.30;;;;;;;24.37;43.73;100369.58;104413;1285;69176;-85
2023/08/08 03:21:24;;;;;;;1.40;1.30;;;;;;;24.30;43.94;100372.63;104624;1286;69793;-85
2023/08/08 03:23:49;;;;;;;2.00;1.30;;;;;;;24.17;44.10;100362.17;104583;1288;69273;-85
2023/08/08 03:26:15;;;;;;;2.70;1.40;;;;;;;24.00;44.22;100360.48;104556;1282;69266;-85
2023/08/08 03:28:40;;;;;;;2.00;1.50;;;;;;;23.86;44.56;100354.30;104571;1283;69273;-86
2023/08/08 03:31:06;;;;;;;4.20;1.60;;;;;;;23.77;44.86;100345.75;104358;1282;69259;-85
2023/08/08 03:33:31;;;;;;;1.50;1.30;;;;;;;23.71;45.06;100331.44;104461;1282;70350;-85
2023/08/08 03:35:57;;;;;;;2.80;1.40;;;;;;;23.67;45.23;100330.46;104516;1282;71667;-85
2023/08/08 03:38:22;;;;;;;3.20;1.40;;;;;;;23.70;45.40;100344.56;104418;1284;69272;-85
2023/08/08 03:40:48;;;;;;;2.30;1.70;;;;;;;23.72;45.51;100351.20;104581;1284;66636;-85
2023/08/08 03:45:53;;;;;;;2.10;1.50;;;;;;;23.74;45.52;100353.38;104359;1285;69151;-85
2023/08/08 03:48:18;;;;;;;2.90;1.70;;;;;;;23.72;45.63;100356.14;104636;1284;69268;-85
2023/08/08 03:50:46;;;;;;;3.10;1.80;;;;;;;23.65;45.68;100356.59;104591;1285;69192;-85
2023/08/08 03:53:12;;;;;;;2.40;1.70;;;;;;;23.52;45.75;100357.06;104451;1286;69266;-85
2023/08/08 03:55:37;;;;;;;2.10;1.70;;;;;;;23.43;46.07;100385.05;104242;1285;69300;-84
2023/08/08 03:58:03;;;;;;;3.00;1.80;;;;;;;23.40;46.35;100397.19;104325;1285;69385;-84
2023/08/08 04:00:28;;;;;;;3.30;1.70;;;;;;;23.38;46.39;100407.19;104422;1285;67675;-85
2023/08/08 04:02:54;;;;;;;3.30;1.60;;;;;;;23.36;46.55;100409.41;104347;1285;67824;-85
2023/08/08 04:05:19;;;;;;;2.20;1.90;;;;;;;23.35;46.68;100412.40;104046;1285;69132;-85
2023/08/08 04:07:45;;;;;;;2.60;1.60;;;;;;;23.29;46.70;100418.11;104398;1288;69838;-85
2023/08/08 04:12:51;;;;;;;;;;;;;;;23.06;47.07;100419.34;104474;1283;69077;-85
2023/08/08 04:15:16;;;;;;;2.90;2.00;;;;;;;22.94;47.18;100402.30;104440;1286;69189;-85
2023/08/08 04:17:42;;;;;;;2.10;1.70;;;;;;;22.96;47.37;100392.56;104136;1290;69279;-85
2023/08/08 04:20:09;;;;;;;3.60;2.40;;;;;;;23.02;47.54;100411.00;104363;1288;69207;-85
2023/08/08 04:22:35;;;;;;;3.70;2.20;;;;;;;23.05;47.57;100426.17;104213;1287;69135;-85
2023/08/08 04:25:01;;;;;;;2.40;2.20;;;;;;;23.00;47.49;100414.02;104449;1285;69233;-85
2023/08/08 04:27:26;;;;;;;2.40;2.00;;;;;;;22.88;47.66;100401.76;104430;1285;69191;-85
2023/08/08 04:29:52;;;;;;;3.20;2.10;;;;;;;22.85;47.86;100413.84;104393;1290;69247;-85
2023/08/08 04:32:17;;;;;;;3.70;2.10;;;;;;;22.87;47.91;100438.39;104390;1288;69189;-85
2023/08/08 04:34:43;;;;;;;5.80;2.20;;;;;;;22.85;47.93;100457.30;104388;1286;69280;-85
2023/08/08 04:37:17;;;;;;;4.20;2.30;;;;;;;22.81;48.00;100468.65;104244;1285;69304;-90
2023/08/08 04:39:42;;;;;;;3.40;2.60;;;;;;;22.75;48.05;100486.23;104390;1286;69087;-85
2023/08/08 04:42:08;;;;;;;4.40;2.80;;;;;;;22.70;48.12;100499.15;104402;1284;69248;-86
2023/08/08 04:44:42;;;;;;;4.20;2.80;;;;;;;22.64;48.17;100498.52;104664;1284;69164;-84
2023/08/08 04:47:07;;;;;;;3.10;2.70;;;;;;;22.62;48.30;100492.02;106639;1285;81074;-86
2023/08/08 04:49:33;;;;;;;2.70;2.50;;;;;;;22.60;48.39;100496.18;106745;1284;69227;-86
2023/08/08 04:54:30;;;;;;;3.60;3.10;;;;;;;22.64;48.49;100494.73;105659;1285;67224;-85
2023/08/08 04:56:56;;;;;;;5.40;3.00;;;;;;;22.68;48.55;100490.02;104573;1288;69194;-85
2023/08/08 04:59:21;;;;;;;4.60;2.70;;;;;;;22.74;48.60;100490.31;104575;1285;69365;-85
2023/08/08 05:01:47;;;;;;;5.50;2.90;;;;;;;22.80;48.59;100481.58;104546;1289;69263;-85
2023/08/08 05:04:12;;;;;;;4.20;2.80;;;;;;;22.91;48.44;100477.48;104434;1285;69277;-86
2023/08/08 05:06:38;;;;;;;10.80;3.30;;;;;;;23.03;48.32;100478.23;104363;1287;69225;-85
2023/08/08 05:09:03;;;;;;;17.30;4.00;;;;;;;23.12;48.17;100490.31;104603;1285;69263;-85
2023/08/08 05:11:29;;;;;;;8.50;3.40;;;;;;;23.19;48.07;100495.48;105005;1285;69311;-85
2023/08/08 05:13:54;;;;;;;9.50;3.70;;;;;;;23.21;47.90;100495.34;104362;1289;69221;-85
2023/08/08 05:16:20;;;;;;;6.30;3.40;;;;;;;23.20;47.81;100499.84;104431;1290;74345;-85
2023/08/08 05:18:45;;;;;;;10.50;3.50;;;;;;;23.12;47.60;100500.67;104537;1288;69221;-85
2023/08/08 05:21:11;;;;;;;6.00;4.30;;;;;;;22.99;47.60;100496.33;104632;1288;67750;-85
2023/08/08 05:23:37;;;;;;;4.60;4.20;;;;;;;22.86;47.71;100497.60;104746;1288;69246;-85
2023/08/08 05:26:03;;;;;;;7.70;5.80;;;;;;;22.82;47.83;100499.39;104478;1288;69276;-85
2023/08/08 05:28:29;;;;;;;4.20;3.60;;;;;;;22.84;47.87;100491.63;104490;1290;82151;-85
2023/08/08 05:33:34;;;;;;;5.10;3.80;;;;;;;22.80;47.80;100463.02;104668;1285;69261;-85
2023/08/08 05:35:59;;;;;;;4.50;3.40;;;;;;;22.82;47.96;100465.15;105640;1285;69239;-85
2023/08/08 05:38:25;;;;;;;4.50;3.30;;;;;;;22.91;47.98;100467.79;104695;1285;67591;-85
2023/08/08 05:40:50;;;;;;;3.50;3.10;;;;;;;23.02;47.92;100472.39;105497;1286;66976;-85
2023/08/08 05:43:18;;;;;;;5.10;2.90;;;;;;;23.11;47.80;100490.89;104796;1288;68579;-85
2023/08/08 05:48:26;;;;;;;3.40;3.10;;;;;;;23.23;47.53;100498.70;104967;1282;69603;-86
2023/08/08 05:50:51;;;;;;;5.30;3.10;;;;;;;23.29;47.37;100482.80;104843;1281;69259;-86
2023/08/08 05:53:17;;;;;;;5.30;2.80;;;;;;;23.35;47.37;100482.55;104703;1282;69229;-86
2023/08/08 05:55:42;;;;;;;3.80;3.10;;;;;;;23.40;47.29;100495.88;104622;1282;69218;-85
2023/08/08 05:58:08;;;;;;;4.90;3.10;;;;;;;23.44;47.11;100501.13;104630;1282;69350;-87
2023/08/08 06:00:34;;;;;;;4.10;3.10;;;;;;;23.47;47.11;100503.83;104506;1283;73600;-86
2023/08/08 06:03:03;;;;;;;3.30;3.00;;;;;;;23.49;47.02;100509.86;104864;1286;69272;-87
2023/08/08 06:05:28;;;;;;;5.10;2.90;;;;;;;23.49;46.98;100508.89;104838;1282;69303;-85
2023/08/08 06:07:55;;;;;;;2.90;2.70;;;;;;;23.50;46.91;100503.48;104926;1285;69210;-86
2023/08/08 06:10:21;;;;;;;5.60;2.90;;;;;;;23.52;46.87;100498.33;104748;1282;67376;-86
2023/08/08 06:12:57;;;;;;;4.40;3.20;;;;;;;23.54;46.93;100508.84;104684;1282;71370;-92
2023/08/08 06:15:23;;;;;;;5.10;3.20;;;;;;;23.56;46.87;100506.45;104530;1282;69122;-86
2023/08/08 06:17:48;;;;;;;3.40;3.00;;;;;;;23.58;46.75;100499.10;104543;1284;70363;-86
2023/08/08 06:20:14;;;;;;;5.20;2.90;;;;;;;23.59;46.74;100498.98;104459;1285;69311;-85
2023/08/08 06:22:41;;;;;;;4.20;3.20;;;;;;;23.61;46.84;100504.91;104498;1282;69686;-85
2023/08/08 06:25:07;;;;;;;7.70;3.20;;;;;;;23.63;46.76;100510.44;104420;1285;69269;-86
2023/08/08 06:27:32;;;;;;;6.20;3.20;;;;;;;23.64;46.72;100510.17;104678;1284;68151;-86
2023/08/08 06:29:58;;;;;;;8.30;3.90;;;;;;;23.65;46.58;100512.08;104734;1282;69187;-86
2023/08/08 06:32:24;;;;;;;5.40;3.40;;;;;;;23.64;46.58;100517.67;104591;1285;69192;-85
2023/08/08 06:34:49;;;;;;;6.60;3.40;;;;;;;23.65;46.58;100528.45;104579;1288;67352;-85
2023/08/08 06:37:15;;;;;;;5.60;3.70;;;;;;;23.65;46.61;100535.08;104629;1282;69113;-85
2023/08/08 06:39:41;;;;;;;7.00;3.50;;;;;;;23.61;46.53;100546.02;104493;1288;69339;-86
2023/08/08 06:42:07;;;;;;;10.90;8.00;;;;;;;23.51;46.48;100552.37;104324;1289;70371;-84
2023/08/08 06:44:33;;;;;;;56.10;45.50;;;;;;;23.37;46.58;100554.55;104467;1288;69128;-85
2023/08/08 06:46:59;;;;;;;14.80;11.60;;;;;;;23.25;46.76;100553.01;104414;1284;69126;-85
2023/08/08 06:49:24;;;;;;;6.60;4.30;;;;;;;23.15;47.05;100563.53;104505;1282;69221;-84
2023/08/08 06:51:52;;;;;;;5.00;3.80;;;;;;;23.09;47.34;100575.59;104652;1285;69646;-85
2023/08/08 06:54:18;;;;;;;6.70;3.60;;;;;;;23.10;47.42;100577.83;104337;1290;69247;-85
2023/08/08 06:56:43;;;;;;;4.20;3.70;;;;;;;23.06;47.47;100582.94;104445;1288;69362;-85
2023/08/08 06:59:09;;;;;;;5.60;3.70;;;;;;;23.01;47.65;100576.05;104520;1282;69316;-85
2023/08/08 07:01:35;;;;;;;4.50;3.30;;;;;;;22.96;47.78;100560.59;104771;1285;69185;-85
2023/08/08 07:04:00;;;;;;;6.00;3.30;;;;;;;22.91;47.80;100556.45;104402;1283;69107;-86
2023/08/08 07:06:26;;;;;;;8.50;3.50;;;;;;;22.85;47.83;100567.02;104474;1285;69211;-85
2023/08/08 07:08:52;;;;;;;4.90;4.00;;;;;;;22.77;48.01;100601.44;104582;1285;69180;-85
2023/08/08 07:11:18;;;;;;;6.60;3.90;;;;;;;22.73;48.17;100620.39;104562;1285;69311;-86
2023/08/08 07:13:43;;;;;;;5.60;4.00;;;;;;;22.72;48.18;100618.34;104365;1287;69266;-86
2023/08/08 07:16:09;;;;;;;6.60;4.20;;;;;;;22.67;48.18;100610.36;104490;1285;69238;-86
2023/08/08 07:18:34;;;;;;;5.50;4.20;;;;;;;22.60;48.20;100599.73;104698;1283;69259;-93
2023/08/08 07:21:00;;;;;;;5.50;4.10;;;;;;;22.56;48.41;100601.34;104635;1285;69252;-86
2023/08/08 07:23:26;;;;;;;6.50;4.80;;;;;;;22.56;48.47;100600.77;104657;1283;69268;-86
2023/08/08 07:25:52;;;;;;;8.20;4.70;;;;;;;22.53;48.43;100599.40;104642;1285;69247;-87
2023/08/08 07:28:17;;;;;;;7.80;5.00;;;;;;;22.50;48.46;100607.88;104430;1289;69169;-86
2023/08/08 07:30:46;;;;;;;8.60;5.70;;;;;;;22.50;48.51;100610.13;104525;1285;69077;-86
2023/08/08 07:33:13;;;;;;;6.90;6.00;;;;;;;22.52;48.58;100617.30;104345;1291;69039;-86
2023/08/08 07:35:39;;;;;;;6.30;5.70;;;;;;;22.54;48.61;100612.37;104365;1287;74399;-86
2023/08/08 07:38:05;;;;;;;6.90;5.80;;;;;;;22.57;48.52;100603.13;104658;1287;69244;-86
2023/08/08 07:40:30;;;;;;;6.70;6.00;;;;;;;22.59;48.54;100600.71;104543;1283;67864;-86
2023/08/08 07:42:58;;;;;;;7.00;6.10;;;;;;;22.60;48.48;100602.20;104579;1286;69261;-85
2023/08/08 07:45:42;;;;;;;7.70;6.40;;;;;;;22.60;48.46;100599.23;104351;1286;69276;-90
2023/08/08 07:48:08;;;;;;;7.60;6.80;;;;;;;22.58;48.34;100588.05;104404;1282;69183;-85
2023/08/08 07:50:33;;;;;;;6.90;6.20;;;;;;;22.56;48.28;100576.88;104813;1287;69255;-86
2023/08/08 07:52:59;;;;;;;6.50;5.90;;;;;;;22.57;48.37;100574.42;104644;1289;69311;-86
2023/08/08 07:55:24;;;;;;;6.70;5.60;;;;;;;22.59;48.43;100567.95;104506;1288;69258;-86
2023/08/08 07:57:50;;;;;;;6.30;5.80;;;;;;;22.59;48.30;100574.71;104566;1282;69269;-86
2023/08/08 08:00:18;;;;;;;6.50;5.90;;;;;;;22.57;48.30;100585.48;104396;1282;69230;-85
2023/08/08 08:02:59;;;;;;;6.80;6.20;;;;;;;22.59;48.28;100588.20;104506;1284;72246;-85
2023/08/08 08:05:25;;;;;;;8.00;6.00;;;;;;;22.55;48.26;100596.93;104425;1288;69315;-85
2023/08/08 08:07:50;;;;;;;9.30;6.50;;;;;;;22.48;48.24;100602.14;104694;1284;69253;-85
2023/08/08 08:10:15;;;;;;;7.40;6.80;;;;;;;22.44;48.46;100606.09;104430;1283;69423;-85
2023/08/08 08:12:41;;;;;;;9.10;6.30;;;;;;;22.42;48.45;100603.48;104666;1285;69199;-85
2023/08/08 08:15:08;;;;;;;9.60;6.80;;;;;;;22.43;48.64;100597.95;104399;1285;69312;-85
2023/08/08 08:17:33;;;;;;;7.40;6.70;;;;;;;22.47;48.55;100595.84;104489;1285;69215;-85
2023/08/08 08:19:59;;;;;;;7.40;6.40;;;;;;;22.48;48.57;100602.96;104518;1285;69309;-85
2023/08/08 08:22:24;;;;;;;9.30;6.80;;;;;;;22.49;48.52;100601.42;104537;1285;69276;-85
2023/08/08 08:24:50;;;;;;;7.60;6.90;;;;;;;22.50;48.71;100603.41;104492;1285;69250;-86
2023/08/08 08:29:55;;;;;;;9.80;8.00;;;;;;;22.52;48.76;100613.50;104820;1282;69097;-84
2023/08/08 08:32:20;;;;;;;10.00;8.10;;;;;;;22.56;48.70;100611.75;104481;1285;69171;-84
2023/08/08 08:34:46;;;;;;;13.90;8.70;;;;;;;22.60;48.64;100603.63;104525;1285;69352;-86
2023/08/08 08:37:12;;;;;;;12.00;7.80;;;;;;;22.65;48.69;100598.67;104542;1287;70483;-86
2023/08/08 08:39:37;;;;;;;9.00;8.20;;;;;;;22.68;48.62;100603.73;104316;1285;70574;-86
2023/08/08 08:42:04;;;;;;;9.30;7.70;;;;;;;22.69;48.53;100603.38;104027;1285;69292;-86
2023/08/08 08:44:31;;;;;;;8.10;7.40;;;;;;;22.70;48.43;100600.80;104076;1285;71761;-86
2023/08/08 08:47:04;;;;;;;8.10;7.40;;;;;;;22.73;48.51;100597.46;104422;1285;69253;-86
2023/08/08 08:49:30;;;;;;;8.40;7.10;;;;;;;22.74;48.48;100593.15;104567;1283;67656;-86
2023/08/08 08:51:56;;;;;;;10.10;7.40;;;;;;;22.74;48.31;100588.89;104479;1285;69280;-87
2023/08/08 08:54:22;;;;;;;9.80;8.80;;;;;;;22.75;48.30;100593.24;104414;1285;69371;-86
2023/08/08 08:56:47;;;;;;;9.10;8.30;;;;;;;22.76;48.29;100595.70;104357;1284;69352;-86
2023/08/08 08:59:12;;;;;;;9.60;8.80;;;;;;;22.77;48.27;100589.84;106156;1289;69259;-86
2023/08/08 09:01:38;;;;;;;9.30;8.50;;;;;;;22.79;48.26;100597.42;105541;1287;69340;-85
2023/08/08 09:04:04;;;;;;;9.20;8.30;;;;;;;22.82;48.21;100605.27;104669;1284;69283;-84
2023/08/08 09:06:29;;;;;;;9.20;8.30;;;;;;;22.85;48.20;100605.25;104311;1285;69267;-85
2023/08/08 09:08:55;;;;;;;10.60;8.50;;;;;;;22.85;48.07;100614.84;104097;1283;69282;-85
2023/08/08 09:11:20;;;;;;;9.50;8.60;;;;;;;22.87;48.04;100610.15;104351;1285;69302;-85
2023/08/08 09:13:46;;;;;;;11.60;9.00;;;;;;;22.87;47.96;100606.98;104558;1285;69255;-85
2023/08/08 09:16:12;;;;;;;10.50;9.50;;;;;;;22.91;47.91;100600.23;104497;1284;69257;-85
2023/08/08 09:18:38;;;;;;;10.40;9.40;;;;;;;22.95;47.86;100595.54;104473;1287;69758;-85
2023/08/08 09:21:23;;;;;;;9.90;9.00;;;;;;;23.00;47.88;100599.25;104460;1285;69305;-91
2023/08/08 09:23:49;;;;;;;9.50;8.60;;;;;;;22.99;47.73;100601.67;104345;1290;69132;-85
2023/08/08 09:26:16;;;;;;;9.80;8.90;;;;;;;22.99;47.85;100604.23;104490;1285;69209;-86
2023/08/08 09:28:42;;;;;;;9.40;8.70;;;;;;;23.01;47.78;100605.71;104358;1290;73583;-85
2023/08/08 09:31:07;;;;;;;11.80;9.50;;;;;;;23.05;47.86;100607.38;104494;1285;69641;-86
2023/08/08 09:33:33;;;;;;;8.90;8.10;;;;;;;23.09;47.80;100607.71;104376;1285;68066;-85
2023/08/08 09:36:15;;;;;;;9.70;8.60;;;;;;;23.13;47.79;100613.80;104282;1287;70460;-90
2023/08/08 09:38:41;;;;;;;10.20;7.90;;;;;;;23.15;47.75;100620.40;104305;1289;73442;-86
2023/08/08 09:41:09;;;;;;;11.00;9.90;;;;;;;23.16;47.71;100619.83;104592;1288;69262;-86
2023/08/08 09:43:34;;;;;;;12.30;11.20;;;;;;;23.22;47.82;100622.64;104448;1285;69305;-86
2023/08/08 09:46:00;;;;;;;15.90;14.30;;;;;;;23.31;47.80;100629.66;104219;1285;69278;-86
2023/08/08 09:48:32;;;;;;;20.30;16.50;;;;;;;23.37;47.64;100627.83;104382;1285;69276;-86
2023/08/08 09:51:07;;;;;;;14.40;12.50;;;;;;;23.44;47.74;100626.08;104182;1285;73449;-92
2023/08/08 09:53:34;;;;;;;13.20;11.60;;;;;;;23.52;47.65;100625.13;104278;1289;66985;-86
2023/08/08 09:56:00;;;;;;;10.80;9.60;;;;;;;23.58;47.55;100626.67;104467;1289;69178;-86
2023/08/08 09:58:25;;;;;;;10.70;8.50;;;;;;;23.64;47.49;100623.95;104511;1285;69254;-86
2023/08/08 10:00:51;;;;;;;12.30;8.70;;;;;;;23.69;47.35;100622.21;104840;1285;69544;-86
2023/08/08 10:03:17;;;;;;;9.60;8.50;;;;;;;23.74;47.27;100624.94;105131;1285;69205;-87
2023/08/08 10:05:45;;;;;;;8.10;7.40;;;;;;;23.79;47.16;100628.71;104670;1285;69257;-86
2023/08/08 10:08:11;;;;;;;8.60;7.60;;;;;;;23.82;47.22;100642.08;104381;1290;69346;-86
2023/08/08 10:10:37;;;;;;;8.00;7.30;;;;;;;23.86;47.12;100652.53;104113;1285;69262;-86
2023/08/08 10:13:02;;;;;;;7.50;6.80;;;;;;;23.90;46.87;100657.33;104293;1285;67463;-86
2023/08/08 10:15:28;;;;;;;7.40;6.40;;;;;;;23.92;46.74;100660.19;104350;1286;69369;-86
2023/08/08 10:18:14;;;;;;;6.60;5.90;;;;;;;23.95;46.83;100660.66;104171;1285;69233;-91
2023/08/08 10:20:44;;;;;;;6.80;5.50;;;;;;;23.98;46.67;100656.09;104234;1285;69180;-86
2023/08/08 10:23:09;;;;;;;5.90;5.20;;;;;;;24.02;46.67;100657.61;104414;1285;69129;-86
2023/08/08 10:25:35;;;;;;;5.30;4.80;;;;;;;24.05;46.59;100660.81;104282;1285;69277;-86
2023/08/08 10:28:04;;;;;;;5.00;4.60;;;;;;;24.07;46.29;100663.00;104584;1285;69214;-86
2023/08/08 10:30:42;;;;;;;4.50;4.10;;;;;;;24.08;46.36;100661.50;104972;1284;69196;-86
2023/08/08 10:33:17;;;;;;;5.50;4.60;;;;;;;24.10;46.22;100661.38;104912;1285;69129;-86
2023/08/08 10:38:17;;;;;;;4.20;3.80;;;;;;;24.13;46.28;100659.39;105072;1281;72805;-85
2023/08/08 10:40:43;;;;;;;4.10;3.70;;;;;;;24.15;46.04;100662.81;105018;1282;69583;-85
2023/08/08 10:43:12;;;;;;;4.80;3.00;;;;;;;24.17;46.09;100669.94;104744;1283;69168;-85
2023/08/08 10:45:42;;;;;;;3.70;2.40;;;;;;;24.18;46.01;100671.83;104879;1283;66974;-85
2023/08/08 10:48:53;;;;;;;4.30;2.60;;;;;;;24.18;46.06;100668.23;105000;1283;69169;-86
2023/08/08 10:51:19;;;;;;;3.30;2.40;;;;;;;24.19;45.98;100674.19;104626;1285;74369;-85
2023/08/08 10:53:53;;;;;;;2.90;2.50;;;;;;;24.21;45.74;100679.62;104561;1288;67334;-91
2023/08/08 10:56:18;;;;;;;4.50;2.60;;;;;;;24.23;45.77;100673.02;104484;1283;69033;-85
2023/08/08 10:58:47;;;;;;;4.40;2.30;;;;;;;24.25;45.92;100670.62;104665;1283;69211;-85
2023/08/08 11:01:14;;;;;;;4.70;2.40;;;;;;;24.27;45.78;100667.02;104631;1283;69074;-85
2023/08/08 11:03:40;;;;;;;2.40;2.10;;;;;;;24.29;45.52;100663.91;104557;1283;69336;-85
2023/08/08 11:06:06;;;;;;;2.50;2.00;;;;;;;24.31;45.48;100668.08;104761;1282;69465;-86
2023/08/08 11:08:32;;;;;;;3.10;2.00;;;;;;;24.33;45.55;100670.42;105107;1281;69169;-86
2023/08/08 11:11:38;;;;;;;3.20;2.00;;;;;;;24.35;45.32;100676.08;105648;1282;67776;-86
2023/08/08 11:14:17;;;;;;;3.60;1.80;;;;;;;24.37;45.25;100672.97;105516;1283;73102;-86
2023/08/08 11:16:43;;;;;;;2.60;1.80;;;;;;;24.38;45.17;100675.37;105716;1288;73535;-86
2023/08/08 11:19:09;;;;;;;2.50;1.70;;;;;;;24.40;45.22;100677.37;105283;1282;68003;-86
2023/08/08 11:21:37;;;;;;;4.80;1.90;;;;;;;24.42;45.12;100676.62;105191;1283;69210;-86
2023/08/08 11:24:04;;;;;;;2.40;1.70;;;;;;;24.44;44.98;100681.42;104761;1283;69043;-86
2023/08/08 11:26:31;;;;;;;1.90;1.70;;;;;;;24.46;44.84;100676.83;105126;1285;67245;-86
2023/08/08 11:29:03;;;;;;;2.10;1.40;;;;;;;24.47;44.77;100675.98;104996;1285;73723;-86
2023/08/08 11:31:29;;;;;;;2.20;1.40;;;;;;;24.49;44.89;100674.98;104850;1284;67872;-86
2023/08/08 11:33:56;;;;;;;1.70;1.40;;;;;;;24.50;44.73;100677.71;105076;1285;67145;-85
2023/08/08 11:36:22;;;;;;;1.80;1.40;;;;;;;24.52;44.42;100674.39;105035;1284;69272;-84
2023/08/08 11:38:48;;;;;;;2.00;1.20;;;;;;;24.54;44.50;100670.89;105006;1285;69205;-85
2023/08/08 11:41:17;;;;;;;4.40;1.50;;;;;;;24.54;44.31;100666.14;104429;1285;69547;-85